Terminal Aerodrome Forecast
Issued by NWS

Home | Current Version | Previous Version | Graphics & Text | Print | Product List | Glossary On
Versions: 1 2 3 4 5 6 7 8 9 10 11
000
FTUS45 KGGW 150536
TAFOLF
TAF
KOLF 150536Z 1506/1606 02017G27KT 3SM -SN BLSN OVC050
     FM151000 01014KT 2SM -SHSN BLSN OVC035
     FM151300 36011KT P6SM OVC045
     FM160200 26008KT P6SM SKC=

USA.gov is the U.S. government's official web portal to all federal, state and local government web resources and services.